Carver Park, New York
Current Conditions -  °F | °C
As of 1:56 PM on Tuesday 21 Oct 2014 (Local Time) from KHWV Reporting Station
Few Clouds Few Clouds  
Wind Chill: 67°   Ceiling: Unl
Heat Index: 67°   Visibility: 10mi
Dew Point: 51°   Wind: 7mph
Humidity: 57%   Direction: 130°SE
Pressure: 29.87"   Gusts: NA
Location:  40.835°N, 72.922°W
Report Text: KHWV 211756Z AUTO 13006KT 10SM FEW085 FEW100 19/11 A2987 RMK AO2 SLP114 T01940106 10200 20100 58014 TSNO
Loading
Personal Weather Stations






























Interactive Weather Map
Tropical Storm Tracking
New forecast layout! Learn more

10-Day Weather Forecast

Advertisements
Track Severe Weather on mobile